Airfield :
LOGIN :

Register | Disclaimer

   EN    FR    IT 

 










Legend :    VFR   Marginal VFR   IFR   Intensive IFR   Very Intensive IFR
Visi :
Ceiling :
>= 8 km
>= 3000ft
5 to 8 km
1000 to 3000 ft
1500m to 5 km
500 to 1000 ft
800 to 1500m
200 to 500 ft
< 800m
< 200 ft
Symbols :   Thunderstorms  Fog  Heavy snow  Heavy precipitations  Wind > 20 kt
SIGMETs :     Misc.  Thunderstorms  Icing  Turbulence  Mountain Waves  Volcanic Ashes






- Airport Elevation : 7 ft
- IATA code : XHE


LFTH - Hyeres

CURRENT METAR :
  • 231430Z AUTO 25003KT 200V320 9999 FEW004/// SCT058/// OVC076/// ///CB 12/03 Q1007 TEMPO VRB15G25KT 3000 TSRA

EXPIRED METARs :
  • 231400Z AUTO 34015KT 310V010 9999 -RADZ ///TCU 12/02 Q1007 TEMPO VRB15G25KT 3000 TSRA FEW040CB BKN090
  • 231330Z AUTO 26013KT 240V330 9999 //////TCU 16/02 Q1006 TEMPO VRB15G25KT 3000 TSRA FEW040CB BKN090
  • 231300Z AUTO 23016KT CAVOK 15/02 Q1006 NOSIG
  • 231230Z AUTO 23015KT CAVOK 15/02 Q1006 NOSIG
  • 231200Z AUTO 23016KT CAVOK 15/03 Q1006 NOSIG
  • 231130Z AUTO 23016KT 200V260 CAVOK 15/03 Q1007 NOSIG
  • 231100Z AUTO 23015KT CAVOK 14/02 Q1007 NOSIG
  • 231030Z AUTO 23013KT 200V260 CAVOK 14/01 Q1007 NOSIG
  • 231000Z AUTO 22011KT 190V250 CAVOK 14/02 Q1007 NOSIG

TAF TAF LFTH
Valid from the 23 at 15:00 until the 24 at 15:00 UTC


231400Z 2315/2415 33010G25KT 9999 SHRA FEW040TCU BKN070
TEMPO 2315/2318 VRB15G25KT 3000 TSRA FEW040CB BKN080
BECMG 2318/2320 33010KT
BECMG 2412/2414 30015G25KT



MET'MAP, your aeronautical weather chart ! - Copyright ORBIFLY December 2007 - Disclaimer

ORBIFLY MET'MAP TEAM :

Programming & Development : Alexandra Zaïnal
Original concept : Baudouin d'Aumeries
Technical & hardware support : Manuel Goepfert
Assistance : Marc-Olivier Méhu




SOURCES & CREDITS :

   NOAA